Portada
METAR-TAF:

METAR-TAF

Aeroports :

Aeroport Suvarnabhumi

Bangkok-Suvarnabhumi, Tailàndia

latitud: 13-40-52N, longitud: 100-44-50E, altitud: 2 m

Observació

L'informe es va fer fa 27 minuts, a les 13:30 UTC
Vent 2 kt amb direcció variable
Temperatura 29°C
Humitat 84%
Pressió 1011 hPa
Visibilitat 10 km o més
Escasses núvols a una alçada de 2000 ft

METAR: VTBS 251330Z VRB02KT 9999 FEW020 29/26 Q1011 NOSIG

Hora: 20:57 (13:57 UTC)

Pronòstic

L'informe es va fer fa 2 hores i 57 minuts, a les 11:00 UTC
Pronòstic vàlid del 25 a les 12 UTC al 26 a les 18 UTC
Vent 8 kt del Sud/Sud-Oest
Visibilitat 10 km o més
Escasses núvols a una alçada de 2000 ft
Temporalment
l' 26 a les 07 UTC al 26 a les 11 UTC
Vent 15 kt del Sud-Oest
Visibilitat: 6000 m
Escasses núvols a una alçada de 1800 ft, Cumulonimbus.
Núvols disperses a una alçada de 3000 ft
Cel ennuvolat a una alçada de 10000 ft
tempesta, pluja

TAF: VTBS 251100Z 2512/2618 20008KT 9999 FEW020 TEMPO 2607/2611 23015KT 6000 -TSRA FEW018CB SCT030 BKN100

Observacions i pronòstics meteorològics de més de 4000 aeroports (METAR i TAF).

Les estacions disponibles són els punts grocs i vermells al mapa.

Posi el ratolí al punt desitjat per veure el nom de l'estació.

Feu clic per veure les observacions i els pronòstics meteorològics.

Per canviar el mapa: feu clic els botons verds amb una creu de color negre per apropar; al botó verd amb un guió per allunyar la imatge; o en les fletxes verdes per a mapes adjacents.


METAR-TAF: